AKU208 VHHH-NZAA
Flight info
| Callsign | AKU208 |
|---|---|
| Flight time | N/A |
| Altitude | 33000 |
| Route | DALOL V642 NOMAN A461 AVMUP W16 MIA B462 TAC R337 ISGOG DCT 08N135E/N0502F350 05N140E 01N145E DCT PIKOK DCT MOE DCT 05S151E 0821S15500E/N0495F370 10S157E 1400S15923E 15S160E DCT BODEG DCT 24S165E DCT OSVAR/N0486F390 DCT 31S170E DCT ELNOS BASI9B/05R |
| Aircraft | A35K/H-SDE2E3GHIJ3J4J5LM1OR/LB1D1 |
Departure
| Time | N/A |
|---|---|
| Airport | Hong Kong International Airport (VHHH) |
Arrival
| Time | 2026-05-04 09:43 |
|---|---|
| Airport | Auckland International Airport (NZAA) |
| Time | Latitude | Longitude | Altitude | Speed | Heading |
|---|---|---|---|---|---|
| 2026-05-04 09:14 | -35.02453 | 172.92304 | 35481 ft | 458 kts | 157° |
| 2026-05-04 09:14 | -35.08254 | 172.95521 | 35488 ft | 458 kts | 157° |
| 2026-05-04 09:15 | -35.14051 | 172.98740 | 35496 ft | 458 kts | 157° |
| 2026-05-04 09:15 | -35.19855 | 173.01968 | 35489 ft | 458 kts | 157° |
| 2026-05-04 09:17 | -35.45957 | 173.16550 | 35500 ft | 460 kts | 157° |
| 2026-05-04 09:18 | -35.51778 | 173.19816 | 35481 ft | 462 kts | 157° |
| 2026-05-04 09:18 | -35.54742 | 173.21480 | 35334 ft | 473 kts | 157° |
| 2026-05-04 09:18 | -35.57751 | 173.23171 | 34869 ft | 478 kts | 157° |
| 2026-05-04 09:19 | -35.60788 | 173.24879 | 33978 ft | 485 kts | 156° |
| 2026-05-04 09:19 | -35.63884 | 173.26622 | 33109 ft | 491 kts | 156° |
| 2026-05-04 09:19 | -35.66991 | 173.28374 | 32470 ft | 491 kts | 156° |
| 2026-05-04 09:19 | -35.70089 | 173.30122 | 31943 ft | 489 kts | 156° |
| 2026-05-04 09:20 | -35.73174 | 173.31865 | 31413 ft | 487 kts | 156° |
| 2026-05-04 09:20 | -35.76245 | 173.33601 | 30882 ft | 485 kts | 156° |
| 2026-05-04 09:20 | -35.79304 | 173.35331 | 30312 ft | 483 kts | 156° |
| 2026-05-04 09:20 | -35.82347 | 173.37053 | 29750 ft | 480 kts | 156° |
| 2026-05-04 09:21 | -35.85375 | 173.38768 | 29227 ft | 476 kts | 156° |
| 2026-05-04 09:21 | -35.88374 | 173.40468 | 28720 ft | 473 kts | 156° |
| 2026-05-04 09:21 | -35.91350 | 173.42156 | 28197 ft | 469 kts | 155° |
| 2026-05-04 09:21 | -35.94308 | 173.43836 | 27676 ft | 466 kts | 155° |
| 2026-05-04 09:22 | -35.97243 | 173.45504 | 27162 ft | 463 kts | 155° |
| 2026-05-04 09:22 | -36.00127 | 173.47144 | 26719 ft | 458 kts | 155° |
| 2026-05-04 09:22 | -36.03011 | 173.48786 | 26263 ft | 454 kts | 155° |
| 2026-05-04 09:22 | -36.05868 | 173.50413 | 25817 ft | 449 kts | 154° |
| 2026-05-04 09:23 | -36.08702 | 173.52030 | 25364 ft | 445 kts | 154° |
| 2026-05-04 09:23 | -36.11504 | 173.53629 | 24902 ft | 442 kts | 154° |
| 2026-05-04 09:23 | -36.14278 | 173.55213 | 24480 ft | 437 kts | 154° |
| 2026-05-04 09:23 | -36.17029 | 173.56785 | 24043 ft | 433 kts | 153° |
| 2026-05-04 09:25 | -36.35366 | 173.67300 | 20056 ft | 388 kts | 153° |
| 2026-05-04 09:25 | -36.37809 | 173.68710 | 19596 ft | 386 kts | 152° |
| 2026-05-04 09:26 | -36.40097 | 173.70401 | 19106 ft | 381 kts | 139° |
| 2026-05-04 09:26 | -36.42058 | 173.72590 | 18584 ft | 378 kts | 134° |
| 2026-05-04 09:26 | -36.43930 | 173.74874 | 18099 ft | 375 kts | 133° |
| 2026-05-04 09:26 | -36.45775 | 173.77141 | 17642 ft | 371 kts | 133° |
| 2026-05-04 09:27 | -36.47609 | 173.79386 | 17204 ft | 368 kts | 133° |
| 2026-05-04 09:27 | -36.49425 | 173.81606 | 16759 ft | 364 kts | 133° |
| 2026-05-04 09:27 | -36.51226 | 173.83803 | 16318 ft | 361 kts | 133° |
| 2026-05-04 09:27 | -36.53012 | 173.85980 | 15873 ft | 358 kts | 133° |
| 2026-05-04 09:28 | -36.54782 | 173.88139 | 15437 ft | 355 kts | 133° |
| 2026-05-04 09:28 | -36.56543 | 173.90286 | 15003 ft | 353 kts | 133° |
| 2026-05-04 09:28 | -36.58267 | 173.92391 | 14578 ft | 350 kts | 133° |
| 2026-05-04 09:28 | -36.59978 | 173.94478 | 13912 ft | 339 kts | 133° |
| 2026-05-04 09:29 | -36.61651 | 173.96520 | 13137 ft | 331 kts | 133° |
| 2026-05-04 09:29 | -36.63277 | 173.98507 | 12759 ft | 325 kts | 133° |
| 2026-05-04 09:29 | -36.64884 | 174.00473 | 12378 ft | 324 kts | 133° |
| 2026-05-04 09:29 | -36.66486 | 174.02436 | 11970 ft | 323 kts | 133° |
| 2026-05-04 09:30 | -36.68085 | 174.04396 | 11559 ft | 321 kts | 133° |
| 2026-05-04 09:30 | -36.69675 | 174.06344 | 11171 ft | 320 kts | 132° |
| 2026-05-04 09:30 | -36.71267 | 174.08297 | 10742 ft | 320 kts | 132° |
| 2026-05-04 09:30 | -36.72833 | 174.10217 | 10534 ft | 311 kts | 132° |
| 2026-05-04 09:31 | -36.74344 | 174.12069 | 10393 ft | 299 kts | 132° |
| 2026-05-04 09:31 | -36.75797 | 174.13852 | 10263 ft | 287 kts | 132° |
| 2026-05-04 09:31 | -36.77209 | 174.15588 | 9953 ft | 284 kts | 132° |
| 2026-05-04 09:31 | -36.78610 | 174.17315 | 9622 ft | 283 kts | 132° |
| 2026-05-04 09:32 | -36.80015 | 174.19048 | 9290 ft | 283 kts | 132° |
| 2026-05-04 09:32 | -36.81395 | 174.20746 | 9126 ft | 274 kts | 132° |
| 2026-05-04 09:34 | -36.90637 | 174.32152 | 6989 ft | 263 kts | 132° |
| 2026-05-04 09:34 | -36.91931 | 174.33752 | 6665 ft | 261 kts | 132° |
| 2026-05-04 09:34 | -36.93218 | 174.35344 | 6360 ft | 260 kts | 133° |
| 2026-05-04 09:34 | -36.94501 | 174.36933 | 6044 ft | 259 kts | 133° |
| 2026-05-04 09:35 | -36.95778 | 174.38514 | 5751 ft | 258 kts | 133° |
| 2026-05-04 09:35 | -36.97049 | 174.40089 | 5453 ft | 256 kts | 133° |
| 2026-05-04 09:35 | -36.98314 | 174.41657 | 5134 ft | 255 kts | 133° |
| 2026-05-04 09:35 | -36.99572 | 174.43216 | 4836 ft | 254 kts | 133° |
| 2026-05-04 09:37 | -37.07489 | 174.53634 | 3356 ft | 212 kts | 106° |
| 2026-05-04 09:37 | -37.07598 | 174.55331 | 3128 ft | 206 kts | 79° |
| 2026-05-04 09:38 | -37.07193 | 174.57012 | 3004 ft | 196 kts | 68° |
| 2026-05-04 09:38 | -37.06728 | 174.58535 | 3001 ft | 179 kts | 70° |
| 2026-05-04 09:38 | -37.06329 | 174.59977 | 2901 ft | 172 kts | 71° |
| 2026-05-04 09:38 | -37.05961 | 174.61355 | 2684 ft | 162 kts | 71° |
| 2026-05-04 09:39 | -37.05607 | 174.62649 | 2468 ft | 152 kts | 70° |
| 2026-05-04 09:39 | -37.05272 | 174.63858 | 2252 ft | 142 kts | 70° |
| 2026-05-04 09:39 | -37.04961 | 174.64988 | 2064 ft | 139 kts | 70° |
| 2026-05-04 09:39 | -37.04649 | 174.66122 | 1879 ft | 140 kts | 70° |
| 2026-05-04 09:40 | -37.04333 | 174.67271 | 1690 ft | 139 kts | 70° |
| 2026-05-04 09:40 | -37.04017 | 174.68415 | 1495 ft | 139 kts | 71° |
| 2026-05-04 09:40 | -37.03703 | 174.69557 | 1315 ft | 138 kts | 71° |
| 2026-05-04 09:40 | -37.03391 | 174.70694 | 1127 ft | 138 kts | 72° |
| 2026-05-04 09:41 | -37.03078 | 174.71830 | 935 ft | 138 kts | 71° |
| 2026-05-04 09:42 | -37.01194 | 174.78666 | 31 ft | 63 kts | 71° |
| 2026-05-04 09:43 | -37.01077 | 174.78944 | 31 ft | 29 kts | 55° |
| 2026-05-04 09:43 | -37.00982 | 174.79056 | 31 ft | 12 kts | 39° |
| 2026-05-04 09:43 | -37.00907 | 174.79054 | 31 ft | 11 kts | 312° |
| 2026-05-04 09:43 | -37.00931 | 174.78918 | 31 ft | 22 kts | 250° |
| 2026-05-04 09:44 | -37.00978 | 174.78746 | 31 ft | 23 kts | 251° |
| 2026-05-04 09:44 | -37.01030 | 174.78555 | 31 ft | 23 kts | 251° |
| 2026-05-04 09:44 | -37.01085 | 174.78361 | 32 ft | 24 kts | 251° |
| 2026-05-04 09:46 | -37.00801 | 174.77567 | 32 ft | 21 kts | 341° |
| 2026-05-04 09:46 | -37.00696 | 174.77596 | 32 ft | 18 kts | 58° |
| 2026-05-04 09:46 | -37.00649 | 174.77742 | 32 ft | 16 kts | 71° |
| 2026-05-04 09:47 | -37.00599 | 174.77822 | 32 ft | 8 kts | 9° |
| 2026-05-04 09:47 | -37.00540 | 174.77799 | 32 ft | 10 kts | 341° |